KNEW/NEW METAR and TAF weather

Enter ICAO airport designator
Station Type Date Time Source
KNEW METAR 2021/03/01 10:01 UTC NOAA

KNEW 011001Z AUTO 00000KT 2 1/2SM BR BKN010 OVC090 19/17 A2998 RMK AO2 VIS 1 1/2V4 T01940172


Station Type Date Time Source
KNEW Decoded METAR 2021/03/01 10:01 UTC NOAA

NEW ORLEANS LAKEFRONT AIRPORT , LA, United States (KNEW) 30-03N 90-02W 3M
Mar 01, 2021 - 05:01 AM EST / 2021.03.01 1001 UTC
Wind: Calm:0
Visibility: 2 1/2 mile(s):0
Sky conditions: overcast
Weather: mist
Temperature: 66.9 F (19.4 C)
Dew Point: 63.0 F (17.2 C)
Relative Humidity: 87%
Pressure (altimeter): 29.98 in. Hg (1015 hPa)
ob: KNEW 011001Z AUTO 00000KT 2 1/2SM BR BKN010 OVC090 19/17 A2998 RMK AO2 VIS 1 1/2V4 T01940172
cycle: 10

Station Type Date Time Source
KNEW TAF 2021/03/01 06:36 UTC NOAA

TAF KNEW 010535Z 0106/0206 18008KT P6SM BKN010
FM011000 19005KT 1/4SM FG BKN003
FM011500 VRB04KT 4SM BR BKN003
FM011800 36007KT P6SM SHRA BKN015
FM012300 04014G24KT 6SM SHRA BR OVC025

Example: see airport list